Terminal Aerodrome Forecast
Issued by NWS Greer, SC

Home | Current Version | Previous Version | Text Only | Print | Product List | Glossary On
Versions: 1 2 3 4 5 6 7 8 9 10 11 12 13
000
FTUS42 KGSP 292336
TAFAVL
TAF
KAVL 292336Z 3000/3024 34005KT P6SM BKN250
     FM301500 15006KT P6SM BKN080 PROB30 3018/3024 3SM -SHRA OVC025=

USA.gov is the U.S. government's official web portal to all federal, state and local government web resources and services.